sensor_id;sensor_type;location;lat;lon;timestamp;P1;durP1;ratioP1;P2;durP2;ratioP2
77788;SDS011;66980;44.384;0.512;2023-03-31T00:00:39;5.75;;;2.38;;
77788;SDS011;66980;44.384;0.512;2023-03-31T00:03:05;7.00;;;2.42;;
77788;SDS011;66980;44.384;0.512;2023-03-31T00:05:35;6.55;;;2.38;;
77788;SDS011;66980;44.384;0.512;2023-03-31T00:08:01;3.75;;;2.03;;
77788;SDS011;66980;44.384;0.512;2023-03-31T00:10:28;4.22;;;2.17;;
77788;SDS011;66980;44.384;0.512;2023-03-31T00:12:56;4.47;;;2.45;;
77788;SDS011;66980;44.384;0.512;2023-03-31T00:15:22;4.28;;;1.92;;
77788;SDS011;66980;44.384;0.512;2023-03-31T00:17:47;5.70;;;2.05;;
77788;SDS011;66980;44.384;0.512;2023-03-31T00:20:13;4.75;;;2.75;;
77788;SDS011;66980;44.384;0.512;2023-03-31T00:22:39;4.30;;;1.90;;
77788;SDS011;66980;44.384;0.512;2023-03-31T00:25:07;4.85;;;2.35;;
77788;SDS011;66980;44.384;0.512;2023-03-31T00:27:35;6.07;;;2.47;;
77788;SDS011;66980;44.384;0.512;2023-03-31T00:30:01;7.07;;;2.85;;
77788;SDS011;66980;44.384;0.512;2023-03-31T00:32:27;3.55;;;2.40;;
77788;SDS011;66980;44.384;0.512;2023-03-31T00:34:52;3.35;;;2.05;;
77788;SDS011;66980;44.384;0.512;2023-03-31T00:37:17;5.70;;;2.70;;
77788;SDS011;66980;44.384;0.512;2023-03-31T00:39:43;3.38;;;2.10;;
77788;SDS011;66980;44.384;0.512;2023-03-31T00:42:09;5.07;;;2.30;;
77788;SDS011;66980;44.384;0.512;2023-03-31T00:45:19;3.42;;;2.42;;
77788;SDS011;66980;44.384;0.512;2023-03-31T00:47:50;7.65;;;2.88;;
77788;SDS011;66980;44.384;0.512;2023-03-31T00:50:23;7.93;;;2.20;;
77788;SDS011;66980;44.384;0.512;2023-03-31T00:52:54;4.18;;;2.30;;
77788;SDS011;66980;44.384;0.512;2023-03-31T00:55:24;6.75;;;2.60;;
77788;SDS011;66980;44.384;0.512;2023-03-31T00:57:56;4.40;;;2.47;;
77788;SDS011;66980;44.384;0.512;2023-03-31T01:00:22;4.13;;;2.47;;
77788;SDS011;66980;44.384;0.512;2023-03-31T01:02:54;3.60;;;2.38;;
77788;SDS011;66980;44.384;0.512;2023-03-31T01:05:26;3.70;;;2.25;;
77788;SDS011;66980;44.384;0.512;2023-03-31T01:07:52;5.15;;;2.05;;
77788;SDS011;66980;44.384;0.512;2023-03-31T01:10:20;4.55;;;2.13;;
77788;SDS011;66980;44.384;0.512;2023-03-31T01:12:46;3.28;;;2.13;;
77788;SDS011;66980;44.384;0.512;2023-03-31T01:15:16;3.55;;;2.40;;
77788;SDS011;66980;44.384;0.512;2023-03-31T01:17:42;4.20;;;2.42;;
77788;SDS011;66980;44.384;0.512;2023-03-31T01:34:57;4.00;;;2.80;;
77788;SDS011;66980;44.384;0.512;2023-03-31T01:40:27;4.85;;;2.70;;
77788;SDS011;66980;44.384;0.512;2023-03-31T01:42:58;4.80;;;2.88;;
77788;SDS011;66980;44.384;0.512;2023-03-31T01:45:36;5.13;;;2.58;;
77788;SDS011;66980;44.384;0.512;2023-03-31T01:51:17;4.88;;;1.95;;
77788;SDS011;66980;44.384;0.512;2023-03-31T01:53:50;5.78;;;2.33;;
77788;SDS011;66980;44.384;0.512;2023-03-31T01:56:40;6.15;;;2.33;;
77788;SDS011;66980;44.384;0.512;2023-03-31T01:59:11;6.78;;;2.17;;
77788;SDS011;66980;44.384;0.512;2023-03-31T02:01:51;2.58;;;1.90;;
77788;SDS011;66980;44.384;0.512;2023-03-31T02:04:22;6.35;;;2.60;;
77788;SDS011;66980;44.384;0.512;2023-03-31T02:06:53;6.88;;;3.35;;
77788;SDS011;66980;44.384;0.512;2023-03-31T02:09:23;4.93;;;2.63;;
77788;SDS011;66980;44.384;0.512;2023-03-31T02:11:52;3.80;;;2.28;;
77788;SDS011;66980;44.384;0.512;2023-03-31T02:14:21;4.57;;;2.28;;
77788;SDS011;66980;44.384;0.512;2023-03-31T02:16:51;6.28;;;2.55;;
77788;SDS011;66980;44.384;0.512;2023-03-31T02:19:22;5.47;;;2.42;;
77788;SDS011;66980;44.384;0.512;2023-03-31T02:21:52;5.63;;;2.88;;
77788;SDS011;66980;44.384;0.512;2023-03-31T02:24:19;6.47;;;2.08;;
77788;SDS011;66980;44.384;0.512;2023-03-31T02:27:10;6.88;;;2.58;;
77788;SDS011;66980;44.384;0.512;2023-03-31T02:29:46;6.18;;;2.45;;
77788;SDS011;66980;44.384;0.512;2023-03-31T02:32:14;5.10;;;2.33;;
77788;SDS011;66980;44.384;0.512;2023-03-31T02:34:40;3.40;;;1.92;;
77788;SDS011;66980;44.384;0.512;2023-03-31T02:37:06;5.05;;;2.47;;
77788;SDS011;66980;44.384;0.512;2023-03-31T02:39:33;5.32;;;2.40;;
77788;SDS011;66980;44.384;0.512;2023-03-31T02:41:59;5.65;;;2.67;;
77788;SDS011;66980;44.384;0.512;2023-03-31T02:44:32;3.47;;;2.08;;
77788;SDS011;66980;44.384;0.512;2023-03-31T02:46:59;4.35;;;2.22;;
77788;SDS011;66980;44.384;0.512;2023-03-31T02:49:25;4.30;;;2.22;;
77788;SDS011;66980;44.384;0.512;2023-03-31T02:52:03;5.53;;;2.22;;
77788;SDS011;66980;44.384;0.512;2023-03-31T02:54:47;5.15;;;1.88;;
77788;SDS011;66980;44.384;0.512;2023-03-31T03:01:03;4.75;;;1.95;;
77788;SDS011;66980;44.384;0.512;2023-03-31T03:05:53;3.72;;;2.42;;
77788;SDS011;66980;44.384;0.512;2023-03-31T03:13:45;4.85;;;1.88;;
77788;SDS011;66980;44.384;0.512;2023-03-31T03:16:23;3.53;;;2.05;;
77788;SDS011;66980;44.384;0.512;2023-03-31T03:19:00;2.30;;;1.92;;
77788;SDS011;66980;44.384;0.512;2023-03-31T03:21:28;5.95;;;2.00;;
77788;SDS011;66980;44.384;0.512;2023-03-31T03:23:53;3.40;;;1.92;;
77788;SDS011;66980;44.384;0.512;2023-03-31T03:26:20;3.58;;;2.15;;
77788;SDS011;66980;44.384;0.512;2023-03-31T03:31:13;2.53;;;1.60;;
77788;SDS011;66980;44.384;0.512;2023-03-31T03:33:40;4.70;;;2.17;;
77788;SDS011;66980;44.384;0.512;2023-03-31T03:36:05;5.00;;;2.50;;
77788;SDS011;66980;44.384;0.512;2023-03-31T03:38:32;4.25;;;2.03;;
77788;SDS011;66980;44.384;0.512;2023-03-31T03:40:57;4.15;;;1.95;;
77788;SDS011;66980;44.384;0.512;2023-03-31T03:43:23;4.53;;;1.90;;
77788;SDS011;66980;44.384;0.512;2023-03-31T03:45:48;5.85;;;1.85;;
77788;SDS011;66980;44.384;0.512;2023-03-31T03:48:14;2.75;;;2.05;;
77788;SDS011;66980;44.384;0.512;2023-03-31T03:50:40;4.65;;;2.40;;
77788;SDS011;66980;44.384;0.512;2023-03-31T03:53:05;4.38;;;1.98;;
77788;SDS011;66980;44.384;0.512;2023-03-31T03:55:31;2.83;;;1.63;;
77788;SDS011;66980;44.384;0.512;2023-03-31T03:57:57;3.80;;;1.75;;
77788;SDS011;66980;44.384;0.512;2023-03-31T04:00:22;3.05;;;1.85;;
77788;SDS011;66980;44.384;0.512;2023-03-31T04:02:48;2.67;;;1.77;;
77788;SDS011;66980;44.384;0.512;2023-03-31T04:05:13;4.28;;;1.92;;
77788;SDS011;66980;44.384;0.512;2023-03-31T04:07:39;3.88;;;2.00;;
77788;SDS011;66980;44.384;0.512;2023-03-31T04:10:05;4.88;;;2.15;;
77788;SDS011;66980;44.384;0.512;2023-03-31T04:12:33;4.88;;;2.22;;
77788;SDS011;66980;44.384;0.512;2023-03-31T04:14:59;3.88;;;1.63;;
77788;SDS011;66980;44.384;0.512;2023-03-31T04:17:25;5.18;;;2.20;;
77788;SDS011;66980;44.384;0.512;2023-03-31T04:19:57;3.72;;;1.58;;
77788;SDS011;66980;44.384;0.512;2023-03-31T04:22:26;3.30;;;1.40;;
77788;SDS011;66980;44.384;0.512;2023-03-31T04:25:00;4.80;;;1.85;;
77788;SDS011;66980;44.384;0.512;2023-03-31T04:27:27;3.53;;;1.85;;
77788;SDS011;66980;44.384;0.512;2023-03-31T04:29:53;2.22;;;1.63;;
77788;SDS011;66980;44.384;0.512;2023-03-31T04:32:21;4.57;;;1.92;;
77788;SDS011;66980;44.384;0.512;2023-03-31T04:34:48;3.92;;;1.65;;
77788;SDS011;66980;44.384;0.512;2023-03-31T04:37:15;5.72;;;1.95;;
77788;SDS011;66980;44.384;0.512;2023-03-31T04:39:41;3.63;;;1.70;;
77788;SDS011;66980;44.384;0.512;2023-03-31T04:42:06;3.53;;;1.88;;
77788;SDS011;66980;44.384;0.512;2023-03-31T04:44:32;3.83;;;1.77;;
77788;SDS011;66980;44.384;0.512;2023-03-31T04:46:57;3.53;;;2.00;;
77788;SDS011;66980;44.384;0.512;2023-03-31T04:49:26;3.67;;;1.73;;
77788;SDS011;66980;44.384;0.512;2023-03-31T04:51:52;4.30;;;2.40;;
77788;SDS011;66980;44.384;0.512;2023-03-31T04:54:17;3.70;;;1.80;;
77788;SDS011;66980;44.384;0.512;2023-03-31T04:56:43;2.40;;;1.50;;
77788;SDS011;66980;44.384;0.512;2023-03-31T04:59:09;2.40;;;1.73;;
77788;SDS011;66980;44.384;0.512;2023-03-31T05:01:35;3.55;;;1.80;;
77788;SDS011;66980;44.384;0.512;2023-03-31T05:04:01;4.40;;;1.98;;
77788;SDS011;66980;44.384;0.512;2023-03-31T05:06:30;5.30;;;1.85;;
77788;SDS011;66980;44.384;0.512;2023-03-31T05:08:55;4.85;;;2.25;;
77788;SDS011;66980;44.384;0.512;2023-03-31T05:11:21;5.00;;;2.35;;
77788;SDS011;66980;44.384;0.512;2023-03-31T05:13:47;4.05;;;1.75;;
77788;SDS011;66980;44.384;0.512;2023-03-31T05:16:12;5.30;;;2.45;;
77788;SDS011;66980;44.384;0.512;2023-03-31T05:18:39;3.92;;;1.73;;
77788;SDS011;66980;44.384;0.512;2023-03-31T05:21:15;3.60;;;1.92;;
77788;SDS011;66980;44.384;0.512;2023-03-31T05:23:43;4.25;;;1.95;;
77788;SDS011;66980;44.384;0.512;2023-03-31T05:26:10;6.40;;;2.15;;
77788;SDS011;66980;44.384;0.512;2023-03-31T05:28:36;3.28;;;2.50;;
77788;SDS011;66980;44.384;0.512;2023-03-31T05:31:02;5.88;;;2.35;;
77788;SDS011;66980;44.384;0.512;2023-03-31T05:33:28;8.48;;;1.70;;
77788;SDS011;66980;44.384;0.512;2023-03-31T05:35:54;9.48;;;2.30;;
77788;SDS011;66980;44.384;0.512;2023-03-31T05:38:20;7.45;;;2.22;;
77788;SDS011;66980;44.384;0.512;2023-03-31T05:40:46;5.40;;;2.22;;
77788;SDS011;66980;44.384;0.512;2023-03-31T05:43:12;4.95;;;2.00;;
77788;SDS011;66980;44.384;0.512;2023-03-31T05:45:38;5.05;;;2.30;;
77788;SDS011;66980;44.384;0.512;2023-03-31T05:48:04;11.93;;;2.88;;
77788;SDS011;66980;44.384;0.512;2023-03-31T05:50:30;9.15;;;2.17;;
77788;SDS011;66980;44.384;0.512;2023-03-31T05:52:55;9.95;;;1.88;;
77788;SDS011;66980;44.384;0.512;2023-03-31T05:55:21;7.75;;;2.55;;
77788;SDS011;66980;44.384;0.512;2023-03-31T05:57:47;7.57;;;2.70;;
77788;SDS011;66980;44.384;0.512;2023-03-31T06:00:13;5.00;;;2.38;;
77788;SDS011;66980;44.384;0.512;2023-03-31T06:02:39;5.57;;;2.60;;
77788;SDS011;66980;44.384;0.512;2023-03-31T06:05:05;6.43;;;2.70;;
77788;SDS011;66980;44.384;0.512;2023-03-31T06:07:31;4.50;;;2.70;;
77788;SDS011;66980;44.384;0.512;2023-03-31T06:09:56;5.80;;;2.28;;
77788;SDS011;66980;44.384;0.512;2023-03-31T06:12:22;5.50;;;2.17;;
77788;SDS011;66980;44.384;0.512;2023-03-31T06:14:47;12.25;;;3.05;;
77788;SDS011;66980;44.384;0.512;2023-03-31T06:17:14;6.25;;;2.38;;
77788;SDS011;66980;44.384;0.512;2023-03-31T06:19:47;9.77;;;2.42;;
77788;SDS011;66980;44.384;0.512;2023-03-31T06:22:12;14.10;;;2.33;;
77788;SDS011;66980;44.384;0.512;2023-03-31T06:24:38;7.13;;;2.97;;
77788;SDS011;66980;44.384;0.512;2023-03-31T06:27:05;7.72;;;2.20;;
77788;SDS011;66980;44.384;0.512;2023-03-31T06:29:30;6.57;;;2.58;;
77788;SDS011;66980;44.384;0.512;2023-03-31T06:31:56;8.57;;;2.20;;
77788;SDS011;66980;44.384;0.512;2023-03-31T06:34:21;10.95;;;2.40;;
77788;SDS011;66980;44.384;0.512;2023-03-31T06:36:47;10.15;;;2.95;;
77788;SDS011;66980;44.384;0.512;2023-03-31T06:39:12;6.18;;;2.05;;
77788;SDS011;66980;44.384;0.512;2023-03-31T06:41:38;11.85;;;2.42;;
77788;SDS011;66980;44.384;0.512;2023-03-31T06:44:03;8.73;;;2.30;;
77788;SDS011;66980;44.384;0.512;2023-03-31T06:46:29;13.57;;;3.53;;
77788;SDS011;66980;44.384;0.512;2023-03-31T06:48:54;11.30;;;3.08;;
77788;SDS011;66980;44.384;0.512;2023-03-31T06:51:20;7.47;;;2.70;;
77788;SDS011;66980;44.384;0.512;2023-03-31T06:53:46;11.60;;;3.70;;
77788;SDS011;66980;44.384;0.512;2023-03-31T06:56:11;10.68;;;3.30;;
77788;SDS011;66980;44.384;0.512;2023-03-31T06:58:37;10.20;;;3.63;;
77788;SDS011;66980;44.384;0.512;2023-03-31T07:01:03;13.07;;;2.70;;
77788;SDS011;66980;44.384;0.512;2023-03-31T07:03:30;14.30;;;3.50;;
77788;SDS011;66980;44.384;0.512;2023-03-31T07:05:56;11.70;;;3.47;;
77788;SDS011;66980;44.384;0.512;2023-03-31T07:08:22;15.85;;;3.75;;
77788;SDS011;66980;44.384;0.512;2023-03-31T07:10:48;10.27;;;2.95;;
77788;SDS011;66980;44.384;0.512;2023-03-31T07:13:17;8.55;;;3.03;;
77788;SDS011;66980;44.384;0.512;2023-03-31T07:15:43;9.38;;;3.13;;
77788;SDS011;66980;44.384;0.512;2023-03-31T07:18:12;24.00;;;3.40;;
77788;SDS011;66980;44.384;0.512;2023-03-31T07:20:39;16.40;;;3.40;;
77788;SDS011;66980;44.384;0.512;2023-03-31T07:23:06;15.02;;;3.42;;
77788;SDS011;66980;44.384;0.512;2023-03-31T07:25:32;13.88;;;3.08;;
77788;SDS011;66980;44.384;0.512;2023-03-31T07:27:58;14.57;;;3.03;;
77788;SDS011;66980;44.384;0.512;2023-03-31T07:30:24;20.60;;;4.10;;
77788;SDS011;66980;44.384;0.512;2023-03-31T07:32:49;18.65;;;3.60;;
77788;SDS011;66980;44.384;0.512;2023-03-31T07:35:16;18.45;;;3.33;;
77788;SDS011;66980;44.384;0.512;2023-03-31T07:37:43;16.50;;;3.55;;
77788;SDS011;66980;44.384;0.512;2023-03-31T07:42:39;15.40;;;3.92;;
77788;SDS011;66980;44.384;0.512;2023-03-31T07:45:05;9.63;;;3.10;;
77788;SDS011;66980;44.384;0.512;2023-03-31T07:47:32;10.18;;;3.47;;
77788;SDS011;66980;44.384;0.512;2023-03-31T07:49:57;11.52;;;2.70;;
77788;SDS011;66980;44.384;0.512;2023-03-31T07:52:23;10.75;;;2.80;;
77788;SDS011;66980;44.384;0.512;2023-03-31T07:54:48;13.20;;;3.03;;
77788;SDS011;66980;44.384;0.512;2023-03-31T07:57:14;20.02;;;3.50;;
77788;SDS011;66980;44.384;0.512;2023-03-31T07:59:41;12.68;;;2.75;;
77788;SDS011;66980;44.384;0.512;2023-03-31T08:02:09;15.80;;;2.63;;
77788;SDS011;66980;44.384;0.512;2023-03-31T08:04:36;13.45;;;3.20;;
77788;SDS011;66980;44.384;0.512;2023-03-31T08:07:02;19.23;;;3.22;;
77788;SDS011;66980;44.384;0.512;2023-03-31T08:09:28;10.88;;;2.38;;
77788;SDS011;66980;44.384;0.512;2023-03-31T08:11:54;20.42;;;3.63;;
77788;SDS011;66980;44.384;0.512;2023-03-31T08:14:19;14.70;;;3.20;;
77788;SDS011;66980;44.384;0.512;2023-03-31T08:16:45;9.98;;;2.40;;
77788;SDS011;66980;44.384;0.512;2023-03-31T08:19:10;13.05;;;3.22;;
77788;SDS011;66980;44.384;0.512;2023-03-31T08:21:36;12.40;;;2.28;;
77788;SDS011;66980;44.384;0.512;2023-03-31T08:24:01;8.07;;;3.17;;
77788;SDS011;66980;44.384;0.512;2023-03-31T08:26:27;11.68;;;3.05;;
77788;SDS011;66980;44.384;0.512;2023-03-31T08:28:52;29.27;;;4.97;;
77788;SDS011;66980;44.384;0.512;2023-03-31T08:31:19;17.90;;;4.55;;
77788;SDS011;66980;44.384;0.512;2023-03-31T08:33:45;23.30;;;4.45;;
77788;SDS011;66980;44.384;0.512;2023-03-31T08:36:11;15.77;;;5.78;;
77788;SDS011;66980;44.384;0.512;2023-03-31T08:38:38;19.67;;;6.50;;
77788;SDS011;66980;44.384;0.512;2023-03-31T08:41:07;16.90;;;5.25;;
77788;SDS011;66980;44.384;0.512;2023-03-31T08:43:45;20.45;;;5.28;;
77788;SDS011;66980;44.384;0.512;2023-03-31T08:46:13;14.88;;;4.75;;
77788;SDS011;66980;44.384;0.512;2023-03-31T08:48:43;17.35;;;6.68;;
77788;SDS011;66980;44.384;0.512;2023-03-31T08:51:20;15.52;;;5.78;;
77788;SDS011;66980;44.384;0.512;2023-03-31T08:56:32;21.65;;;7.13;;
77788;SDS011;66980;44.384;0.512;2023-03-31T08:59:03;15.27;;;5.78;;
77788;SDS011;66980;44.384;0.512;2023-03-31T09:01:44;16.75;;;6.40;;
77788;SDS011;66980;44.384;0.512;2023-03-31T09:10:04;20.23;;;5.95;;
77788;SDS011;66980;44.384;0.512;2023-03-31T09:18:06;24.52;;;7.97;;
77788;SDS011;66980;44.384;0.512;2023-03-31T09:20:39;36.38;;;8.60;;
77788;SDS011;66980;44.384;0.512;2023-03-31T09:25:57;48.38;;;15.05;;
77788;SDS011;66980;44.384;0.512;2023-03-31T09:28:29;59.80;;;21.00;;
77788;SDS011;66980;44.384;0.512;2023-03-31T09:30:59;71.93;;;27.13;;
77788;SDS011;66980;44.384;0.512;2023-03-31T09:33:29;52.65;;;18.48;;
77788;SDS011;66980;44.384;0.512;2023-03-31T09:35:58;55.03;;;18.88;;
77788;SDS011;66980;44.384;0.512;2023-03-31T09:38:24;81.57;;;24.52;;
77788;SDS011;66980;44.384;0.512;2023-03-31T09:40:56;67.30;;;23.95;;
77788;SDS011;66980;44.384;0.512;2023-03-31T09:43:24;76.43;;;25.73;;
77788;SDS011;66980;44.384;0.512;2023-03-31T09:45:52;68.97;;;22.45;;
77788;SDS011;66980;44.384;0.512;2023-03-31T09:48:19;66.95;;;23.92;;
77788;SDS011;66980;44.384;0.512;2023-03-31T09:50:51;78.78;;;25.38;;
77788;SDS011;66980;44.384;0.512;2023-03-31T09:56:54;90.65;;;23.73;;
77788;SDS011;66980;44.384;0.512;2023-03-31T10:01:48;85.95;;;23.73;;
77788;SDS011;66980;44.384;0.512;2023-03-31T10:04:18;80.15;;;22.00;;
77788;SDS011;66980;44.384;0.512;2023-03-31T10:06:47;69.22;;;22.77;;
77788;SDS011;66980;44.384;0.512;2023-03-31T10:09:13;62.78;;;22.27;;
77788;SDS011;66980;44.384;0.512;2023-03-31T10:11:50;62.30;;;21.83;;
77788;SDS011;66980;44.384;0.512;2023-03-31T10:14:17;58.75;;;21.10;;
77788;SDS011;66980;44.384;0.512;2023-03-31T10:16:57;60.42;;;20.30;;
77788;SDS011;66980;44.384;0.512;2023-03-31T10:19:28;56.80;;;19.60;;
77788;SDS011;66980;44.384;0.512;2023-03-31T10:21:57;56.10;;;18.30;;
77788;SDS011;66980;44.384;0.512;2023-03-31T10:24:25;60.67;;;19.75;;
77788;SDS011;66980;44.384;0.512;2023-03-31T10:27:01;60.22;;;19.15;;
77788;SDS011;66980;44.384;0.512;2023-03-31T10:29:30;59.95;;;19.10;;
77788;SDS011;66980;44.384;0.512;2023-03-31T10:32:02;57.88;;;18.08;;
77788;SDS011;66980;44.384;0.512;2023-03-31T10:34:30;55.05;;;16.88;;
77788;SDS011;66980;44.384;0.512;2023-03-31T10:36:56;47.55;;;16.10;;
77788;SDS011;66980;44.384;0.512;2023-03-31T10:39:22;51.13;;;18.73;;
77788;SDS011;66980;44.384;0.512;2023-03-31T10:41:55;52.20;;;17.42;;
77788;SDS011;66980;44.384;0.512;2023-03-31T10:44:39;41.90;;;15.80;;
77788;SDS011;66980;44.384;0.512;2023-03-31T10:47:25;40.28;;;14.10;;
77788;SDS011;66980;44.384;0.512;2023-03-31T10:49:54;44.92;;;15.35;;
77788;SDS011;66980;44.384;0.512;2023-03-31T10:52:25;38.53;;;14.73;;
77788;SDS011;66980;44.384;0.512;2023-03-31T10:55:00;43.80;;;14.77;;
77788;SDS011;66980;44.384;0.512;2023-03-31T10:57:38;38.40;;;14.25;;
77788;SDS011;66980;44.384;0.512;2023-03-31T11:16:41;34.63;;;12.05;;
77788;SDS011;66980;44.384;0.512;2023-03-31T11:24:44;30.45;;;11.25;;
77788;SDS011;66980;44.384;0.512;2023-03-31T11:27:21;27.48;;;11.32;;
77788;SDS011;66980;44.384;0.512;2023-03-31T11:30:12;33.30;;;11.43;;
77788;SDS011;66980;44.384;0.512;2023-03-31T11:41:10;28.17;;;8.93;;
77788;SDS011;66980;44.384;0.512;2023-03-31T11:43:41;25.40;;;8.23;;
77788;SDS011;66980;44.384;0.512;2023-03-31T11:48:54;29.60;;;9.55;;
77788;SDS011;66980;44.384;0.512;2023-03-31T11:51:25;20.83;;;8.80;;
77788;SDS011;66980;44.384;0.512;2023-03-31T11:53:55;24.85;;;9.35;;
77788;SDS011;66980;44.384;0.512;2023-03-31T11:56:24;27.38;;;9.75;;
77788;SDS011;66980;44.384;0.512;2023-03-31T12:01:24;21.02;;;8.82;;
77788;SDS011;66980;44.384;0.512;2023-03-31T12:03:56;25.73;;;8.75;;
77788;SDS011;66980;44.384;0.512;2023-03-31T12:06:28;25.27;;;8.70;;
77788;SDS011;66980;44.384;0.512;2023-03-31T12:11:55;16.23;;;6.78;;
77788;SDS011;66980;44.384;0.512;2023-03-31T12:17:48;14.52;;;6.80;;
77788;SDS011;66980;44.384;0.512;2023-03-31T12:20:27;20.92;;;7.05;;
77788;SDS011;66980;44.384;0.512;2023-03-31T12:22:53;19.50;;;8.00;;
77788;SDS011;66980;44.384;0.512;2023-03-31T12:25:22;16.40;;;6.68;;
77788;SDS011;66980;44.384;0.512;2023-03-31T12:27:47;19.27;;;7.30;;
77788;SDS011;66980;44.384;0.512;2023-03-31T12:32:54;15.70;;;5.85;;
77788;SDS011;66980;44.384;0.512;2023-03-31T12:41:19;14.82;;;5.82;;
77788;SDS011;66980;44.384;0.512;2023-03-31T12:44:20;18.27;;;7.30;;
77788;SDS011;66980;44.384;0.512;2023-03-31T12:49:54;17.63;;;6.70;;
77788;SDS011;66980;44.384;0.512;2023-03-31T12:57:48;15.55;;;5.75;;
77788;SDS011;66980;44.384;0.512;2023-03-31T13:00:21;17.08;;;5.78;;
77788;SDS011;66980;44.384;0.512;2023-03-31T13:03:31;16.98;;;6.13;;
77788;SDS011;66980;44.384;0.512;2023-03-31T13:05:54;15.40;;;6.45;;
77788;SDS011;66980;44.384;0.512;2023-03-31T13:16:45;12.80;;;5.45;;
77788;SDS011;66980;44.384;0.512;2023-03-31T13:19:32;13.63;;;4.68;;
77788;SDS011;66980;44.384;0.512;2023-03-31T13:22:00;7.93;;;4.03;;
77788;SDS011;66980;44.384;0.512;2023-03-31T13:24:27;15.07;;;5.72;;
77788;SDS011;66980;44.384;0.512;2023-03-31T13:26:55;17.50;;;5.20;;
77788;SDS011;66980;44.384;0.512;2023-03-31T13:32:17;13.00;;;4.55;;
77788;SDS011;66980;44.384;0.512;2023-03-31T13:34:55;10.02;;;3.35;;
77788;SDS011;66980;44.384;0.512;2023-03-31T13:42:51;9.45;;;3.13;;
77788;SDS011;66980;44.384;0.512;2023-03-31T13:46:08;14.52;;;3.67;;
77788;SDS011;66980;44.384;0.512;2023-03-31T13:51:44;9.45;;;3.40;;
77788;SDS011;66980;44.384;0.512;2023-03-31T13:57:30;11.35;;;3.65;;
77788;SDS011;66980;44.384;0.512;2023-03-31T14:00:07;13.23;;;3.22;;
77788;SDS011;66980;44.384;0.512;2023-03-31T14:05:22;4.55;;;2.38;;
77788;SDS011;66980;44.384;0.512;2023-03-31T14:07:53;4.03;;;1.70;;
77788;SDS011;66980;44.384;0.512;2023-03-31T14:10:32;8.88;;;2.00;;
77788;SDS011;66980;44.384;0.512;2023-03-31T14:13:18;7.22;;;1.42;;
77788;SDS011;66980;44.384;0.512;2023-03-31T14:15:55;6.18;;;2.22;;
77788;SDS011;66980;44.384;0.512;2023-03-31T14:18:23;5.70;;;2.38;;
77788;SDS011;66980;44.384;0.512;2023-03-31T14:23:45;8.85;;;2.65;;
77788;SDS011;66980;44.384;0.512;2023-03-31T14:29:07;6.38;;;1.42;;
77788;SDS011;66980;44.384;0.512;2023-03-31T14:31:37;10.00;;;1.95;;
77788;SDS011;66980;44.384;0.512;2023-03-31T14:34:15;9.57;;;2.17;;
77788;SDS011;66980;44.384;0.512;2023-03-31T14:36:52;3.95;;;1.50;;
77788;SDS011;66980;44.384;0.512;2023-03-31T14:39:37;10.73;;;2.35;;
77788;SDS011;66980;44.384;0.512;2023-03-31T14:42:10;4.25;;;1.70;;
77788;SDS011;66980;44.384;0.512;2023-03-31T14:44:44;7.65;;;1.70;;
77788;SDS011;66980;44.384;0.512;2023-03-31T14:47:20;6.20;;;1.42;;
77788;SDS011;66980;44.384;0.512;2023-03-31T14:49:47;6.32;;;1.48;;
77788;SDS011;66980;44.384;0.512;2023-03-31T14:52:48;6.13;;;1.77;;
77788;SDS011;66980;44.384;0.512;2023-03-31T14:55:15;7.78;;;1.40;;
77788;SDS011;66980;44.384;0.512;2023-03-31T14:57:43;9.80;;;1.67;;
77788;SDS011;66980;44.384;0.512;2023-03-31T15:00:15;4.95;;;1.15;;
77788;SDS011;66980;44.384;0.512;2023-03-31T15:02:46;6.50;;;1.80;;
77788;SDS011;66980;44.384;0.512;2023-03-31T15:05:28;8.00;;;1.70;;
77788;SDS011;66980;44.384;0.512;2023-03-31T15:08:00;7.05;;;1.60;;
77788;SDS011;66980;44.384;0.512;2023-03-31T15:10:47;8.55;;;1.20;;
77788;SDS011;66980;44.384;0.512;2023-03-31T15:13:19;6.35;;;1.70;;
77788;SDS011;66980;44.384;0.512;2023-03-31T15:15:52;4.25;;;1.10;;
77788;SDS011;66980;44.384;0.512;2023-03-31T15:18:17;9.57;;;1.73;;
77788;SDS011;66980;44.384;0.512;2023-03-31T15:20:43;8.45;;;2.33;;
77788;SDS011;66980;44.384;0.512;2023-03-31T15:23:26;6.97;;;1.23;;
77788;SDS011;66980;44.384;0.512;2023-03-31T15:25:56;8.57;;;1.33;;
77788;SDS011;66980;44.384;0.512;2023-03-31T15:28:23;10.38;;;1.35;;
77788;SDS011;66980;44.384;0.512;2023-03-31T15:30:52;8.07;;;1.40;;
77788;SDS011;66980;44.384;0.512;2023-03-31T15:33:21;7.93;;;2.05;;
77788;SDS011;66980;44.384;0.512;2023-03-31T15:35:55;3.08;;;1.48;;
77788;SDS011;66980;44.384;0.512;2023-03-31T15:38:21;5.88;;;0.73;;
77788;SDS011;66980;44.384;0.512;2023-03-31T15:40:54;10.02;;;1.60;;
77788;SDS011;66980;44.384;0.512;2023-03-31T15:43:31;7.95;;;1.58;;
77788;SDS011;66980;44.384;0.512;2023-03-31T15:46:11;8.98;;;1.15;;
77788;SDS011;66980;44.384;0.512;2023-03-31T15:48:50;9.75;;;1.73;;
77788;SDS011;66980;44.384;0.512;2023-03-31T15:51:19;6.80;;;1.67;;
77788;SDS011;66980;44.384;0.512;2023-03-31T15:53:57;9.88;;;1.73;;
77788;SDS011;66980;44.384;0.512;2023-03-31T15:56:42;8.90;;;1.10;;
77788;SDS011;66980;44.384;0.512;2023-03-31T15:59:25;13.05;;;1.73;;
77788;SDS011;66980;44.384;0.512;2023-03-31T16:01:52;6.25;;;1.58;;
77788;SDS011;66980;44.384;0.512;2023-03-31T16:04:20;4.68;;;1.27;;
77788;SDS011;66980;44.384;0.512;2023-03-31T16:11:58;8.77;;;1.80;;
77788;SDS011;66980;44.384;0.512;2023-03-31T16:14:36;11.48;;;1.88;;
77788;SDS011;66980;44.384;0.512;2023-03-31T16:17:11;8.15;;;0.93;;
77788;SDS011;66980;44.384;0.512;2023-03-31T16:19:44;8.27;;;1.90;;
77788;SDS011;66980;44.384;0.512;2023-03-31T16:22:19;7.60;;;1.80;;
77788;SDS011;66980;44.384;0.512;2023-03-31T16:24:54;8.52;;;1.42;;
77788;SDS011;66980;44.384;0.512;2023-03-31T16:27:20;7.65;;;0.80;;
77788;SDS011;66980;44.384;0.512;2023-03-31T16:29:46;4.60;;;0.90;;
77788;SDS011;66980;44.384;0.512;2023-03-31T16:32:13;11.98;;;1.95;;
77788;SDS011;66980;44.384;0.512;2023-03-31T16:34:52;4.85;;;1.00;;
77788;SDS011;66980;44.384;0.512;2023-03-31T16:37:25;6.93;;;0.95;;
77788;SDS011;66980;44.384;0.512;2023-03-31T16:39:51;6.05;;;1.10;;
77788;SDS011;66980;44.384;0.512;2023-03-31T16:42:17;10.40;;;1.40;;
77788;SDS011;66980;44.384;0.512;2023-03-31T16:44:44;9.60;;;1.30;;
77788;SDS011;66980;44.384;0.512;2023-03-31T16:47:10;6.57;;;1.38;;
77788;SDS011;66980;44.384;0.512;2023-03-31T16:49:37;14.43;;;2.33;;
77788;SDS011;66980;44.384;0.512;2023-03-31T16:52:02;7.30;;;1.67;;
77788;SDS011;66980;44.384;0.512;2023-03-31T16:54:29;8.02;;;1.63;;
77788;SDS011;66980;44.384;0.512;2023-03-31T16:56:55;9.40;;;1.45;;
77788;SDS011;66980;44.384;0.512;2023-03-31T16:59:21;3.97;;;1.38;;
77788;SDS011;66980;44.384;0.512;2023-03-31T17:01:47;6.82;;;1.23;;
77788;SDS011;66980;44.384;0.512;2023-03-31T17:04:13;2.53;;;0.90;;
77788;SDS011;66980;44.384;0.512;2023-03-31T17:06:38;10.82;;;1.40;;
77788;SDS011;66980;44.384;0.512;2023-03-31T17:09:04;6.15;;;0.95;;
77788;SDS011;66980;44.384;0.512;2023-03-31T17:11:29;10.20;;;1.58;;
77788;SDS011;66980;44.384;0.512;2023-03-31T17:13:55;10.77;;;1.40;;
77788;SDS011;66980;44.384;0.512;2023-03-31T17:16:21;8.05;;;1.70;;
77788;SDS011;66980;44.384;0.512;2023-03-31T17:18:47;9.27;;;0.93;;
77788;SDS011;66980;44.384;0.512;2023-03-31T17:21:13;9.98;;;1.48;;
77788;SDS011;66980;44.384;0.512;2023-03-31T17:23:42;8.40;;;1.27;;
77788;SDS011;66980;44.384;0.512;2023-03-31T17:26:08;6.85;;;0.90;;
77788;SDS011;66980;44.384;0.512;2023-03-31T17:28:34;8.27;;;0.90;;
77788;SDS011;66980;44.384;0.512;2023-03-31T17:31:00;5.50;;;1.00;;